sensor_id;sensor_type;location;lat;lon;timestamp;P1;durP1;ratioP1;P2;durP2;ratioP2
48367;SDS011;34173;47.446;18.912;2023-01-08T00:01:22;54.38;;;23.75;;
48367;SDS011;34173;47.446;18.912;2023-01-08T00:03:50;63.28;;;26.83;;
48367;SDS011;34173;47.446;18.912;2023-01-08T00:06:18;59.65;;;23.87;;
48367;SDS011;34173;47.446;18.912;2023-01-08T00:08:47;51.50;;;22.10;;
48367;SDS011;34173;47.446;18.912;2023-01-08T00:11:15;55.97;;;23.25;;
48367;SDS011;34173;47.446;18.912;2023-01-08T00:13:43;55.60;;;24.58;;
48367;SDS011;34173;47.446;18.912;2023-01-08T00:16:10;55.70;;;24.23;;
48367;SDS011;34173;47.446;18.912;2023-01-08T00:18:44;53.78;;;24.90;;
48367;SDS011;34173;47.446;18.912;2023-01-08T00:21:12;57.92;;;24.90;;
48367;SDS011;34173;47.446;18.912;2023-01-08T00:23:40;58.22;;;23.77;;
48367;SDS011;34173;47.446;18.912;2023-01-08T00:26:08;52.15;;;24.23;;
48367;SDS011;34173;47.446;18.912;2023-01-08T00:28:36;52.08;;;25.77;;
48367;SDS011;34173;47.446;18.912;2023-01-08T00:31:08;53.17;;;24.83;;
48367;SDS011;34173;47.446;18.912;2023-01-08T00:33:37;51.67;;;24.87;;
48367;SDS011;34173;47.446;18.912;2023-01-08T00:36:06;56.80;;;23.48;;
48367;SDS011;34173;47.446;18.912;2023-01-08T00:38:35;58.22;;;23.62;;
48367;SDS011;34173;47.446;18.912;2023-01-08T00:41:03;54.65;;;24.17;;
48367;SDS011;34173;47.446;18.912;2023-01-08T00:43:30;54.80;;;25.42;;
48367;SDS011;34173;47.446;18.912;2023-01-08T00:45:58;53.92;;;24.45;;
48367;SDS011;34173;47.446;18.912;2023-01-08T00:48:26;58.15;;;23.52;;
48367;SDS011;34173;47.446;18.912;2023-01-08T00:50:54;54.95;;;23.58;;
48367;SDS011;34173;47.446;18.912;2023-01-08T00:53:21;52.17;;;22.70;;
48367;SDS011;34173;47.446;18.912;2023-01-08T00:55:49;48.40;;;22.75;;
48367;SDS011;34173;47.446;18.912;2023-01-08T00:58:17;45.63;;;21.55;;
48367;SDS011;34173;47.446;18.912;2023-01-08T01:00:44;50.95;;;22.48;;
48367;SDS011;34173;47.446;18.912;2023-01-08T01:03:12;53.60;;;22.85;;
48367;SDS011;34173;47.446;18.912;2023-01-08T01:05:40;48.90;;;22.27;;
48367;SDS011;34173;47.446;18.912;2023-01-08T01:08:07;49.00;;;20.70;;
48367;SDS011;34173;47.446;18.912;2023-01-08T01:10:37;48.10;;;21.45;;
48367;SDS011;34173;47.446;18.912;2023-01-08T01:13:05;45.85;;;21.77;;
48367;SDS011;34173;47.446;18.912;2023-01-08T01:15:32;47.30;;;23.27;;
48367;SDS011;34173;47.446;18.912;2023-01-08T01:18:00;49.78;;;21.62;;
48367;SDS011;34173;47.446;18.912;2023-01-08T01:20:28;50.03;;;23.45;;
48367;SDS011;34173;47.446;18.912;2023-01-08T01:22:55;53.22;;;22.77;;
48367;SDS011;34173;47.446;18.912;2023-01-08T01:25:23;45.80;;;21.60;;
48367;SDS011;34173;47.446;18.912;2023-01-08T01:27:50;47.35;;;22.27;;
48367;SDS011;34173;47.446;18.912;2023-01-08T01:30:18;45.63;;;21.02;;
48367;SDS011;34173;47.446;18.912;2023-01-08T01:32:46;49.28;;;22.42;;
48367;SDS011;34173;47.446;18.912;2023-01-08T01:35:13;52.40;;;22.67;;
48367;SDS011;34173;47.446;18.912;2023-01-08T01:37:41;48.63;;;22.48;;
48367;SDS011;34173;47.446;18.912;2023-01-08T01:40:10;53.17;;;23.67;;
48367;SDS011;34173;47.446;18.912;2023-01-08T01:42:38;55.90;;;24.90;;
48367;SDS011;34173;47.446;18.912;2023-01-08T01:45:22;44.72;;;22.35;;
48367;SDS011;34173;47.446;18.912;2023-01-08T01:47:56;49.38;;;22.67;;
48367;SDS011;34173;47.446;18.912;2023-01-08T01:50:27;52.65;;;22.48;;
48367;SDS011;34173;47.446;18.912;2023-01-08T01:55:29;47.90;;;21.70;;
48367;SDS011;34173;47.446;18.912;2023-01-08T01:58:11;51.20;;;22.90;;
48367;SDS011;34173;47.446;18.912;2023-01-08T02:00:40;45.88;;;20.85;;
48367;SDS011;34173;47.446;18.912;2023-01-08T02:03:09;47.55;;;21.80;;
48367;SDS011;34173;47.446;18.912;2023-01-08T02:11:57;48.92;;;21.08;;
48367;SDS011;34173;47.446;18.912;2023-01-08T02:15:22;46.15;;;22.25;;
48367;SDS011;34173;47.446;18.912;2023-01-08T02:22:53;54.60;;;23.87;;
48367;SDS011;34173;47.446;18.912;2023-01-08T02:28:35;44.75;;;22.23;;
48367;SDS011;34173;47.446;18.912;2023-01-08T02:31:06;45.45;;;22.45;;
48367;SDS011;34173;47.446;18.912;2023-01-08T02:33:35;47.30;;;23.40;;
48367;SDS011;34173;47.446;18.912;2023-01-08T02:44:07;47.40;;;22.37;;
48367;SDS011;34173;47.446;18.912;2023-01-08T02:46:39;44.92;;;22.65;;
48367;SDS011;34173;47.446;18.912;2023-01-08T02:49:08;49.08;;;25.17;;
48367;SDS011;34173;47.446;18.912;2023-01-08T02:51:43;41.40;;;21.85;;
48367;SDS011;34173;47.446;18.912;2023-01-08T02:54:18;49.28;;;21.67;;
48367;SDS011;34173;47.446;18.912;2023-01-08T02:56:51;44.92;;;21.90;;
48367;SDS011;34173;47.446;18.912;2023-01-08T02:59:21;47.65;;;23.00;;
48367;SDS011;34173;47.446;18.912;2023-01-08T03:01:49;45.22;;;20.92;;
48367;SDS011;34173;47.446;18.912;2023-01-08T03:04:19;45.25;;;21.02;;
48367;SDS011;34173;47.446;18.912;2023-01-08T03:06:49;41.92;;;21.45;;
48367;SDS011;34173;47.446;18.912;2023-01-08T03:09:16;47.30;;;21.87;;
48367;SDS011;34173;47.446;18.912;2023-01-08T03:12:08;40.88;;;20.80;;
48367;SDS011;34173;47.446;18.912;2023-01-08T03:14:43;45.00;;;20.55;;
48367;SDS011;34173;47.446;18.912;2023-01-08T03:17:18;45.20;;;20.77;;
48367;SDS011;34173;47.446;18.912;2023-01-08T03:19:49;50.97;;;23.45;;
48367;SDS011;34173;47.446;18.912;2023-01-08T03:22:20;39.63;;;20.88;;
48367;SDS011;34173;47.446;18.912;2023-01-08T03:24:50;37.15;;;19.17;;
48367;SDS011;34173;47.446;18.912;2023-01-08T03:27:23;40.38;;;20.00;;
48367;SDS011;34173;47.446;18.912;2023-01-08T03:29:53;35.85;;;18.83;;
48367;SDS011;34173;47.446;18.912;2023-01-08T03:32:22;43.55;;;20.80;;
48367;SDS011;34173;47.446;18.912;2023-01-08T03:34:51;41.70;;;19.95;;
48367;SDS011;34173;47.446;18.912;2023-01-08T03:37:22;42.75;;;20.65;;
48367;SDS011;34173;47.446;18.912;2023-01-08T03:42:35;46.10;;;21.25;;
48367;SDS011;34173;47.446;18.912;2023-01-08T03:45:03;43.65;;;22.08;;
48367;SDS011;34173;47.446;18.912;2023-01-08T03:47:31;39.80;;;19.35;;
48367;SDS011;34173;47.446;18.912;2023-01-08T03:50:00;41.35;;;20.37;;
48367;SDS011;34173;47.446;18.912;2023-01-08T03:52:30;44.70;;;21.80;;
48367;SDS011;34173;47.446;18.912;2023-01-08T03:54:59;41.83;;;21.25;;
48367;SDS011;34173;47.446;18.912;2023-01-08T03:57:27;45.97;;;21.77;;
48367;SDS011;34173;47.446;18.912;2023-01-08T03:59:54;46.80;;;22.73;;
48367;SDS011;34173;47.446;18.912;2023-01-08T04:02:22;43.17;;;20.45;;
48367;SDS011;34173;47.446;18.912;2023-01-08T04:04:50;42.28;;;20.27;;
48367;SDS011;34173;47.446;18.912;2023-01-08T04:07:17;47.08;;;21.12;;
48367;SDS011;34173;47.446;18.912;2023-01-08T04:09:44;39.05;;;19.27;;
48367;SDS011;34173;47.446;18.912;2023-01-08T04:12:13;46.05;;;21.45;;
48367;SDS011;34173;47.446;18.912;2023-01-08T04:14:40;43.47;;;20.55;;
48367;SDS011;34173;47.446;18.912;2023-01-08T04:17:11;39.28;;;18.98;;
48367;SDS011;34173;47.446;18.912;2023-01-08T04:19:39;46.55;;;21.60;;
48367;SDS011;34173;47.446;18.912;2023-01-08T04:22:10;44.60;;;21.62;;
48367;SDS011;34173;47.446;18.912;2023-01-08T04:24:37;45.80;;;20.83;;
48367;SDS011;34173;47.446;18.912;2023-01-08T04:27:05;46.63;;;21.58;;
48367;SDS011;34173;47.446;18.912;2023-01-08T04:29:33;45.72;;;20.85;;
48367;SDS011;34173;47.446;18.912;2023-01-08T04:32:00;41.88;;;21.40;;
48367;SDS011;34173;47.446;18.912;2023-01-08T04:34:28;38.65;;;19.77;;
48367;SDS011;34173;47.446;18.912;2023-01-08T04:36:55;45.60;;;21.10;;
48367;SDS011;34173;47.446;18.912;2023-01-08T04:39:23;43.00;;;21.58;;
48367;SDS011;34173;47.446;18.912;2023-01-08T04:41:51;46.85;;;21.00;;
48367;SDS011;34173;47.446;18.912;2023-01-08T04:44:18;50.12;;;22.08;;
48367;SDS011;34173;47.446;18.912;2023-01-08T04:46:46;43.53;;;21.33;;
48367;SDS011;34173;47.446;18.912;2023-01-08T04:49:13;43.67;;;21.73;;
48367;SDS011;34173;47.446;18.912;2023-01-08T04:51:41;48.13;;;21.77;;
48367;SDS011;34173;47.446;18.912;2023-01-08T04:54:08;50.42;;;21.92;;
48367;SDS011;34173;47.446;18.912;2023-01-08T04:56:36;49.17;;;21.98;;
48367;SDS011;34173;47.446;18.912;2023-01-08T04:59:04;44.38;;;21.83;;
48367;SDS011;34173;47.446;18.912;2023-01-08T05:01:31;47.25;;;22.25;;
48367;SDS011;34173;47.446;18.912;2023-01-08T05:04:00;44.00;;;20.85;;
48367;SDS011;34173;47.446;18.912;2023-01-08T05:06:29;44.15;;;21.95;;
48367;SDS011;34173;47.446;18.912;2023-01-08T05:08:58;44.45;;;21.58;;
48367;SDS011;34173;47.446;18.912;2023-01-08T05:11:26;43.47;;;21.23;;
48367;SDS011;34173;47.446;18.912;2023-01-08T05:13:53;47.20;;;20.77;;
48367;SDS011;34173;47.446;18.912;2023-01-08T05:16:21;44.75;;;21.05;;
48367;SDS011;34173;47.446;18.912;2023-01-08T05:18:49;41.35;;;20.73;;
48367;SDS011;34173;47.446;18.912;2023-01-08T05:21:17;47.03;;;22.00;;
48367;SDS011;34173;47.446;18.912;2023-01-08T05:23:45;44.47;;;21.48;;
48367;SDS011;34173;47.446;18.912;2023-01-08T05:26:16;40.30;;;20.23;;
48367;SDS011;34173;47.446;18.912;2023-01-08T05:28:45;41.65;;;21.27;;
48367;SDS011;34173;47.446;18.912;2023-01-08T05:31:13;48.63;;;21.58;;
48367;SDS011;34173;47.446;18.912;2023-01-08T05:33:41;44.05;;;20.40;;
48367;SDS011;34173;47.446;18.912;2023-01-08T05:36:09;43.33;;;20.88;;
48367;SDS011;34173;47.446;18.912;2023-01-08T05:38:38;45.67;;;20.65;;
48367;SDS011;34173;47.446;18.912;2023-01-08T05:41:06;40.47;;;20.02;;
48367;SDS011;34173;47.446;18.912;2023-01-08T05:43:33;43.50;;;19.98;;
48367;SDS011;34173;47.446;18.912;2023-01-08T05:46:02;43.90;;;20.50;;
48367;SDS011;34173;47.446;18.912;2023-01-08T05:48:31;46.80;;;21.12;;
48367;SDS011;34173;47.446;18.912;2023-01-08T05:50:59;44.20;;;20.58;;
48367;SDS011;34173;47.446;18.912;2023-01-08T05:53:27;47.25;;;21.00;;
48367;SDS011;34173;47.446;18.912;2023-01-08T05:56:01;39.58;;;20.05;;
48367;SDS011;34173;47.446;18.912;2023-01-08T05:58:35;39.03;;;19.33;;
48367;SDS011;34173;47.446;18.912;2023-01-08T06:01:04;42.92;;;19.33;;
48367;SDS011;34173;47.446;18.912;2023-01-08T06:03:37;47.00;;;21.75;;
48367;SDS011;34173;47.446;18.912;2023-01-08T06:06:05;42.03;;;20.17;;
48367;SDS011;34173;47.446;18.912;2023-01-08T06:08:33;38.83;;;18.62;;
48367;SDS011;34173;47.446;18.912;2023-01-08T06:11:02;37.67;;;20.20;;
48367;SDS011;34173;47.446;18.912;2023-01-08T06:13:33;41.13;;;20.02;;
48367;SDS011;34173;47.446;18.912;2023-01-08T06:16:02;42.10;;;19.02;;
48367;SDS011;34173;47.446;18.912;2023-01-08T06:18:29;43.55;;;19.62;;
48367;SDS011;34173;47.446;18.912;2023-01-08T06:20:57;45.33;;;20.52;;
48367;SDS011;34173;47.446;18.912;2023-01-08T06:23:25;40.30;;;19.52;;
48367;SDS011;34173;47.446;18.912;2023-01-08T06:25:58;39.85;;;19.27;;
48367;SDS011;34173;47.446;18.912;2023-01-08T06:28:26;42.35;;;19.05;;
48367;SDS011;34173;47.446;18.912;2023-01-08T06:30:56;43.67;;;20.80;;
48367;SDS011;34173;47.446;18.912;2023-01-08T06:33:25;40.80;;;19.42;;
48367;SDS011;34173;47.446;18.912;2023-01-08T06:35:53;46.28;;;21.45;;
48367;SDS011;34173;47.446;18.912;2023-01-08T06:38:20;42.65;;;20.25;;
48367;SDS011;34173;47.446;18.912;2023-01-08T06:40:48;41.55;;;19.60;;
48367;SDS011;34173;47.446;18.912;2023-01-08T06:43:16;49.08;;;22.27;;
48367;SDS011;34173;47.446;18.912;2023-01-08T06:45:44;42.33;;;21.08;;
48367;SDS011;34173;47.446;18.912;2023-01-08T06:48:19;46.17;;;19.58;;
48367;SDS011;34173;47.446;18.912;2023-01-08T06:50:47;36.63;;;19.05;;
48367;SDS011;34173;47.446;18.912;2023-01-08T06:53:14;42.03;;;20.62;;
48367;SDS011;34173;47.446;18.912;2023-01-08T06:55:42;43.40;;;20.67;;
48367;SDS011;34173;47.446;18.912;2023-01-08T06:58:10;40.00;;;19.45;;
48367;SDS011;34173;47.446;18.912;2023-01-08T07:00:41;38.38;;;19.90;;
48367;SDS011;34173;47.446;18.912;2023-01-08T07:03:09;40.28;;;19.10;;
48367;SDS011;34173;47.446;18.912;2023-01-08T07:05:37;37.83;;;18.98;;
48367;SDS011;34173;47.446;18.912;2023-01-08T07:08:05;44.10;;;19.75;;
48367;SDS011;34173;47.446;18.912;2023-01-08T07:10:33;39.42;;;20.37;;
48367;SDS011;34173;47.446;18.912;2023-01-08T07:13:00;41.20;;;19.85;;
48367;SDS011;34173;47.446;18.912;2023-01-08T07:15:28;40.53;;;21.00;;
48367;SDS011;34173;47.446;18.912;2023-01-08T07:17:56;40.00;;;20.27;;
48367;SDS011;34173;47.446;18.912;2023-01-08T07:20:23;41.10;;;19.92;;
48367;SDS011;34173;47.446;18.912;2023-01-08T07:22:51;44.15;;;21.48;;
48367;SDS011;34173;47.446;18.912;2023-01-08T07:25:18;39.80;;;21.08;;
48367;SDS011;34173;47.446;18.912;2023-01-08T07:27:47;43.42;;;20.80;;
48367;SDS011;34173;47.446;18.912;2023-01-08T07:30:15;36.85;;;19.50;;
48367;SDS011;34173;47.446;18.912;2023-01-08T07:32:57;46.95;;;23.10;;
48367;SDS011;34173;47.446;18.912;2023-01-08T07:35:26;40.80;;;20.40;;
48367;SDS011;34173;47.446;18.912;2023-01-08T07:37:54;41.55;;;21.00;;
48367;SDS011;34173;47.446;18.912;2023-01-08T07:40:22;44.40;;;20.80;;
48367;SDS011;34173;47.446;18.912;2023-01-08T07:42:58;42.22;;;21.90;;
48367;SDS011;34173;47.446;18.912;2023-01-08T07:45:27;41.10;;;21.60;;
48367;SDS011;34173;47.446;18.912;2023-01-08T07:47:56;42.00;;;20.58;;
48367;SDS011;34173;47.446;18.912;2023-01-08T07:50:24;45.30;;;21.35;;
48367;SDS011;34173;47.446;18.912;2023-01-08T07:52:55;41.28;;;20.52;;
48367;SDS011;34173;47.446;18.912;2023-01-08T07:55:26;41.45;;;21.02;;
48367;SDS011;34173;47.446;18.912;2023-01-08T07:57:55;43.75;;;20.77;;
48367;SDS011;34173;47.446;18.912;2023-01-08T08:00:22;44.47;;;22.40;;
48367;SDS011;34173;47.446;18.912;2023-01-08T08:02:50;42.00;;;20.88;;
48367;SDS011;34173;47.446;18.912;2023-01-08T08:05:17;39.72;;;19.98;;
48367;SDS011;34173;47.446;18.912;2023-01-08T08:07:45;38.55;;;20.60;;
48367;SDS011;34173;47.446;18.912;2023-01-08T08:10:13;40.83;;;21.17;;
48367;SDS011;34173;47.446;18.912;2023-01-08T08:12:42;40.63;;;19.95;;
48367;SDS011;34173;47.446;18.912;2023-01-08T08:15:11;39.55;;;19.80;;
48367;SDS011;34173;47.446;18.912;2023-01-08T08:17:39;45.12;;;21.70;;
48367;SDS011;34173;47.446;18.912;2023-01-08T08:20:07;46.08;;;24.60;;
48367;SDS011;34173;47.446;18.912;2023-01-08T08:22:35;47.35;;;23.42;;
48367;SDS011;34173;47.446;18.912;2023-01-08T08:25:03;43.85;;;23.15;;
48367;SDS011;34173;47.446;18.912;2023-01-08T08:27:31;39.47;;;21.08;;
48367;SDS011;34173;47.446;18.912;2023-01-08T08:29:58;43.97;;;22.25;;
48367;SDS011;34173;47.446;18.912;2023-01-08T08:32:26;44.72;;;22.33;;
48367;SDS011;34173;47.446;18.912;2023-01-08T08:34:54;40.45;;;21.77;;
48367;SDS011;34173;47.446;18.912;2023-01-08T08:37:21;40.83;;;21.45;;
48367;SDS011;34173;47.446;18.912;2023-01-08T08:39:49;41.22;;;19.80;;
48367;SDS011;34173;47.446;18.912;2023-01-08T08:42:17;36.75;;;20.23;;
48367;SDS011;34173;47.446;18.912;2023-01-08T08:44:44;40.25;;;21.25;;
48367;SDS011;34173;47.446;18.912;2023-01-08T08:47:12;38.13;;;20.67;;
48367;SDS011;34173;47.446;18.912;2023-01-08T08:49:40;39.40;;;20.30;;
48367;SDS011;34173;47.446;18.912;2023-01-08T08:52:08;41.35;;;20.92;;
48367;SDS011;34173;47.446;18.912;2023-01-08T08:54:36;33.67;;;18.80;;
48367;SDS011;34173;47.446;18.912;2023-01-08T08:57:07;37.58;;;20.00;;
48367;SDS011;34173;47.446;18.912;2023-01-08T08:59:36;33.65;;;19.10;;
48367;SDS011;34173;47.446;18.912;2023-01-08T09:02:03;40.38;;;19.48;;
48367;SDS011;34173;47.446;18.912;2023-01-08T09:04:32;35.38;;;18.37;;
48367;SDS011;34173;47.446;18.912;2023-01-08T09:07:00;34.80;;;18.75;;
48367;SDS011;34173;47.446;18.912;2023-01-08T09:09:28;32.08;;;18.52;;
48367;SDS011;34173;47.446;18.912;2023-01-08T09:11:55;40.78;;;19.48;;
48367;SDS011;34173;47.446;18.912;2023-01-08T09:14:23;33.60;;;18.65;;
48367;SDS011;34173;47.446;18.912;2023-01-08T09:16:51;34.50;;;19.12;;
48367;SDS011;34173;47.446;18.912;2023-01-08T09:19:18;38.13;;;21.15;;
48367;SDS011;34173;47.446;18.912;2023-01-08T09:21:46;44.75;;;25.42;;
48367;SDS011;34173;47.446;18.912;2023-01-08T09:24:15;41.45;;;21.45;;
48367;SDS011;34173;47.446;18.912;2023-01-08T09:26:42;37.83;;;21.25;;
48367;SDS011;34173;47.446;18.912;2023-01-08T09:29:10;32.70;;;18.50;;
48367;SDS011;34173;47.446;18.912;2023-01-08T09:31:38;37.75;;;22.15;;
48367;SDS011;34173;47.446;18.912;2023-01-08T09:34:05;45.35;;;27.42;;
48367;SDS011;34173;47.446;18.912;2023-01-08T09:36:33;34.70;;;20.02;;
48367;SDS011;34173;47.446;18.912;2023-01-08T09:39:01;30.33;;;17.52;;
48367;SDS011;34173;47.446;18.912;2023-01-08T09:41:32;32.28;;;17.98;;
48367;SDS011;34173;47.446;18.912;2023-01-08T09:44:02;30.30;;;17.67;;
48367;SDS011;34173;47.446;18.912;2023-01-08T09:46:31;31.73;;;17.58;;
48367;SDS011;34173;47.446;18.912;2023-01-08T09:48:59;30.27;;;17.70;;
48367;SDS011;34173;47.446;18.912;2023-01-08T09:51:35;33.03;;;18.20;;
48367;SDS011;34173;47.446;18.912;2023-01-08T09:54:04;29.30;;;16.70;;
48367;SDS011;34173;47.446;18.912;2023-01-08T09:56:34;31.80;;;17.80;;
48367;SDS011;34173;47.446;18.912;2023-01-08T09:59:02;35.55;;;19.70;;
48367;SDS011;34173;47.446;18.912;2023-01-08T10:01:33;29.90;;;17.37;;
48367;SDS011;34173;47.446;18.912;2023-01-08T10:06:51;35.95;;;20.17;;
48367;SDS011;34173;47.446;18.912;2023-01-08T10:09:30;29.73;;;17.42;;
48367;SDS011;34173;47.446;18.912;2023-01-08T10:11:59;33.45;;;18.42;;
48367;SDS011;34173;47.446;18.912;2023-01-08T10:14:30;30.02;;;17.42;;
48367;SDS011;34173;47.446;18.912;2023-01-08T10:17:01;31.02;;;17.60;;
48367;SDS011;34173;47.446;18.912;2023-01-08T10:19:38;31.25;;;17.40;;
48367;SDS011;34173;47.446;18.912;2023-01-08T10:22:12;30.70;;;16.52;;
48367;SDS011;34173;47.446;18.912;2023-01-08T10:24:43;28.70;;;17.60;;
48367;SDS011;34173;47.446;18.912;2023-01-08T10:27:12;29.55;;;16.92;;
48367;SDS011;34173;47.446;18.912;2023-01-08T10:29:41;30.55;;;17.25;;
48367;SDS011;34173;47.446;18.912;2023-01-08T10:34:51;29.35;;;16.73;;
48367;SDS011;34173;47.446;18.912;2023-01-08T10:37:26;28.35;;;16.95;;
48367;SDS011;34173;47.446;18.912;2023-01-08T10:42:50;30.30;;;16.40;;
48367;SDS011;34173;47.446;18.912;2023-01-08T10:45:22;28.38;;;16.67;;
48367;SDS011;34173;47.446;18.912;2023-01-08T10:47:55;26.37;;;16.65;;
48367;SDS011;34173;47.446;18.912;2023-01-08T10:50:28;27.77;;;17.17;;
48367;SDS011;34173;47.446;18.912;2023-01-08T10:55:33;24.58;;;16.00;;
48367;SDS011;34173;47.446;18.912;2023-01-08T10:58:12;28.73;;;15.35;;
48367;SDS011;34173;47.446;18.912;2023-01-08T11:00:41;23.92;;;14.23;;
48367;SDS011;34173;47.446;18.912;2023-01-08T11:03:17;27.67;;;16.83;;
48367;SDS011;34173;47.446;18.912;2023-01-08T11:05:49;29.08;;;16.70;;
48367;SDS011;34173;47.446;18.912;2023-01-08T11:08:18;30.48;;;18.45;;
48367;SDS011;34173;47.446;18.912;2023-01-08T11:10:56;28.98;;;17.50;;
48367;SDS011;34173;47.446;18.912;2023-01-08T11:13:25;28.08;;;18.25;;
48367;SDS011;34173;47.446;18.912;2023-01-08T11:15:58;28.85;;;17.48;;
48367;SDS011;34173;47.446;18.912;2023-01-08T11:18:30;27.65;;;16.55;;
48367;SDS011;34173;47.446;18.912;2023-01-08T11:21:07;28.95;;;17.73;;
48367;SDS011;34173;47.446;18.912;2023-01-08T11:23:36;27.23;;;16.73;;
48367;SDS011;34173;47.446;18.912;2023-01-08T11:26:09;28.85;;;16.85;;
48367;SDS011;34173;47.446;18.912;2023-01-08T11:29:01;27.70;;;17.10;;
48367;SDS011;34173;47.446;18.912;2023-01-08T11:31:38;30.88;;;18.58;;
48367;SDS011;34173;47.446;18.912;2023-01-08T11:34:19;26.52;;;16.58;;
48367;SDS011;34173;47.446;18.912;2023-01-08T11:36:53;28.50;;;16.37;;
48367;SDS011;34173;47.446;18.912;2023-01-08T11:39:25;25.70;;;16.45;;
48367;SDS011;34173;47.446;18.912;2023-01-08T11:44:37;26.00;;;16.75;;
48367;SDS011;34173;47.446;18.912;2023-01-08T11:47:13;26.85;;;16.10;;
48367;SDS011;34173;47.446;18.912;2023-01-08T11:50:26;26.45;;;16.25;;
48367;SDS011;34173;47.446;18.912;2023-01-08T12:07:24;27.30;;;17.20;;
48367;SDS011;34173;47.446;18.912;2023-01-08T12:15:38;29.15;;;18.27;;
48367;SDS011;34173;47.446;18.912;2023-01-08T12:20:59;28.58;;;17.83;;
48367;SDS011;34173;47.446;18.912;2023-01-08T12:23:52;26.98;;;17.60;;
48367;SDS011;34173;47.446;18.912;2023-01-08T12:26:41;29.90;;;18.02;;
48367;SDS011;34173;47.446;18.912;2023-01-08T12:31:54;29.02;;;18.30;;
48367;SDS011;34173;47.446;18.912;2023-01-08T12:37:26;28.58;;;17.27;;
48367;SDS011;34173;47.446;18.912;2023-01-08T12:40:22;27.67;;;16.40;;
48367;SDS011;34173;47.446;18.912;2023-01-08T12:42:53;26.42;;;15.80;;
48367;SDS011;34173;47.446;18.912;2023-01-08T12:45:29;25.25;;;16.70;;
48367;SDS011;34173;47.446;18.912;2023-01-08T12:48:06;25.00;;;16.62;;
48367;SDS011;34173;47.446;18.912;2023-01-08T12:55:58;27.83;;;17.35;;
48367;SDS011;34173;47.446;18.912;2023-01-08T13:03:54;27.30;;;17.70;;
48367;SDS011;34173;47.446;18.912;2023-01-08T13:06:24;24.75;;;15.90;;
48367;SDS011;34173;47.446;18.912;2023-01-08T13:08:53;27.75;;;16.33;;
48367;SDS011;34173;47.446;18.912;2023-01-08T13:11:23;25.75;;;15.05;;
48367;SDS011;34173;47.446;18.912;2023-01-08T13:13:58;24.25;;;15.68;;
48367;SDS011;34173;47.446;18.912;2023-01-08T13:16:36;25.90;;;16.65;;
48367;SDS011;34173;47.446;18.912;2023-01-08T13:19:06;31.00;;;18.90;;
48367;SDS011;34173;47.446;18.912;2023-01-08T13:21:54;33.40;;;21.37;;
48367;SDS011;34173;47.446;18.912;2023-01-08T13:24:36;23.83;;;15.68;;
48367;SDS011;34173;47.446;18.912;2023-01-08T13:27:21;27.48;;;16.70;;
48367;SDS011;34173;47.446;18.912;2023-01-08T13:29:54;27.25;;;16.85;;
48367;SDS011;34173;47.446;18.912;2023-01-08T13:32:45;24.65;;;16.83;;
48367;SDS011;34173;47.446;18.912;2023-01-08T13:37:43;23.35;;;15.60;;
48367;SDS011;34173;47.446;18.912;2023-01-08T13:43:09;26.60;;;16.12;;
48367;SDS011;34173;47.446;18.912;2023-01-08T13:45:39;29.58;;;15.95;;
48367;SDS011;34173;47.446;18.912;2023-01-08T13:48:20;25.58;;;15.68;;
48367;SDS011;34173;47.446;18.912;2023-01-08T13:50:49;24.80;;;15.85;;
48367;SDS011;34173;47.446;18.912;2023-01-08T13:53:17;25.58;;;15.25;;
48367;SDS011;34173;47.446;18.912;2023-01-08T13:56:10;23.65;;;14.80;;
48367;SDS011;34173;47.446;18.912;2023-01-08T13:58:35;23.15;;;15.60;;
48367;SDS011;34173;47.446;18.912;2023-01-08T14:01:07;27.37;;;15.55;;
48367;SDS011;34173;47.446;18.912;2023-01-08T14:03:37;25.48;;;15.75;;
48367;SDS011;34173;47.446;18.912;2023-01-08T14:06:14;23.95;;;16.08;;
48367;SDS011;34173;47.446;18.912;2023-01-08T14:08:54;25.48;;;15.73;;
48367;SDS011;34173;47.446;18.912;2023-01-08T14:13:55;27.80;;;16.80;;
48367;SDS011;34173;47.446;18.912;2023-01-08T14:16:22;23.80;;;15.10;;
48367;SDS011;34173;47.446;18.912;2023-01-08T14:18:50;26.33;;;16.00;;
48367;SDS011;34173;47.446;18.912;2023-01-08T14:21:19;24.23;;;15.38;;
48367;SDS011;34173;47.446;18.912;2023-01-08T14:23:48;28.35;;;17.10;;
48367;SDS011;34173;47.446;18.912;2023-01-08T14:26:28;24.83;;;15.60;;
48367;SDS011;34173;47.446;18.912;2023-01-08T14:28:57;23.35;;;14.80;;
48367;SDS011;34173;47.446;18.912;2023-01-08T14:31:26;26.37;;;15.70;;
48367;SDS011;34173;47.446;18.912;2023-01-08T14:33:55;24.67;;;15.32;;
48367;SDS011;34173;47.446;18.912;2023-01-08T14:36:24;25.52;;;15.15;;
48367;SDS011;34173;47.446;18.912;2023-01-08T14:38:53;27.83;;;16.25;;
48367;SDS011;34173;47.446;18.912;2023-01-08T14:44:21;25.40;;;15.55;;
48367;SDS011;34173;47.446;18.912;2023-01-08T14:47:04;25.65;;;15.73;;
48367;SDS011;34173;47.446;18.912;2023-01-08T14:49:33;27.80;;;15.75;;
48367;SDS011;34173;47.446;18.912;2023-01-08T14:52:07;24.73;;;16.15;;
48367;SDS011;34173;47.446;18.912;2023-01-08T14:54:37;24.50;;;16.50;;
48367;SDS011;34173;47.446;18.912;2023-01-08T14:57:04;25.02;;;16.08;;
48367;SDS011;34173;47.446;18.912;2023-01-08T14:59:33;27.87;;;15.43;;
48367;SDS011;34173;47.446;18.912;2023-01-08T15:02:04;24.15;;;14.05;;
48367;SDS011;34173;47.446;18.912;2023-01-08T15:04:34;23.15;;;15.02;;
48367;SDS011;34173;47.446;18.912;2023-01-08T15:07:13;22.23;;;13.62;;
48367;SDS011;34173;47.446;18.912;2023-01-08T15:09:55;24.10;;;14.87;;
48367;SDS011;34173;47.446;18.912;2023-01-08T15:12:25;24.02;;;14.43;;
48367;SDS011;34173;47.446;18.912;2023-01-08T15:14:54;27.00;;;15.13;;
48367;SDS011;34173;47.446;18.912;2023-01-08T15:17:22;21.42;;;14.85;;
48367;SDS011;34173;47.446;18.912;2023-01-08T15:19:55;25.85;;;15.20;;
48367;SDS011;34173;47.446;18.912;2023-01-08T15:22:28;21.17;;;14.07;;
48367;SDS011;34173;47.446;18.912;2023-01-08T15:27:27;25.90;;;15.88;;
48367;SDS011;34173;47.446;18.912;2023-01-08T15:29:58;24.40;;;15.98;;
48367;SDS011;34173;47.446;18.912;2023-01-08T15:32:32;27.62;;;16.70;;
48367;SDS011;34173;47.446;18.912;2023-01-08T15:35:24;25.45;;;15.98;;
48367;SDS011;34173;47.446;18.912;2023-01-08T15:37:52;28.83;;;18.05;;
48367;SDS011;34173;47.446;18.912;2023-01-08T15:40:19;30.60;;;19.08;;
48367;SDS011;34173;47.446;18.912;2023-01-08T15:42:47;29.20;;;17.60;;
48367;SDS011;34173;47.446;18.912;2023-01-08T15:45:33;28.08;;;17.92;;
48367;SDS011;34173;47.446;18.912;2023-01-08T15:48:01;29.92;;;17.98;;
48367;SDS011;34173;47.446;18.912;2023-01-08T15:50:29;31.48;;;18.50;;
48367;SDS011;34173;47.446;18.912;2023-01-08T15:53:38;29.08;;;18.75;;
48367;SDS011;34173;47.446;18.912;2023-01-08T15:55:58;33.10;;;18.77;;
48367;SDS011;34173;47.446;18.912;2023-01-08T15:58:26;30.17;;;19.17;;
48367;SDS011;34173;47.446;18.912;2023-01-08T16:00:53;30.15;;;18.95;;
48367;SDS011;34173;47.446;18.912;2023-01-08T16:03:21;31.23;;;18.98;;